Time;durP1;ratioP1;P1;durP2;ratioP2;P2;SDS_P1;SDS_P2;PMS_P1;PMS_P2;Temp;Humidity;BMP_temperature;BMP_pressure;BME280_temperature;BME280_humidity;BME280_pressure;Samples;Min_cycle;Max_cycle;Signal;HPM_P1;HPM_P2
2022/06/12 00:01:04;;;;;;;;;;;;;;;20.99;nan;100021.19;4992454;28;19940;-76
2022/06/12 00:03:32;;;;;;;;;;;;;;;20.98;nan;100025.72;4993176;28;19972;-77
2022/06/12 00:05:59;;;;;;;;;;;;;;;20.93;nan;100024.66;4992659;28;19945;-76
2022/06/12 00:08:25;;;;;;;;;;;;;;;20.84;nan;100027.53;4992732;28;20362;-77
2022/06/12 00:10:51;;;;;;;;;;;;;;;20.69;nan;100037.53;4993071;28;19918;-77
2022/06/12 00:13:22;;;;;;;;;;;;;;;20.46;nan;100031.59;4992591;28;20016;-77
2022/06/12 00:15:47;;;;;;;;;;;;;;;20.25;nan;100034.28;4992954;28;20024;-77
2022/06/12 00:18:13;;;;;;;;;;;;;;;20.12;nan;100040.34;4992895;28;20448;-77
2022/06/12 00:20:39;;;;;;;;;;;;;;;20.05;nan;100039.47;4992796;28;20011;-77
2022/06/12 00:23:09;;;;;;;;;;;;;;;19.87;nan;100053.28;4992638;28;20001;-77
2022/06/12 00:25:35;;;;;;;;;;;;;;;19.85;nan;100055.31;4992703;28;19917;-77
2022/06/12 00:28:00;;;;;;;;;;;;;;;19.84;nan;100055.53;4992582;28;19917;-77
2022/06/12 00:30:26;;;;;;;;;;;;;;;19.83;nan;100060.06;4991124;28;19922;-77
2022/06/12 00:32:52;;;;;;;;;;;;;;;19.81;nan;100056.72;4992657;28;19918;-78
2022/06/12 00:35:44;;;;;;;;;;;;;;;19.71;nan;100058.91;4991916;28;19926;-76
2022/06/12 00:38:09;;;;;;;;;;;;;;;19.48;nan;100066.25;4991005;28;19944;-78
2022/06/12 00:40:35;;;;;;;;;;;;;;;19.26;nan;100076.03;4991261;28;20402;-77
2022/06/12 00:43:02;;;;;;;;;;;;;;;19.15;nan;100085.34;4992433;28;20340;-79
2022/06/12 00:45:27;;;;;;;;;;;;;;;19.04;nan;100083.13;4982965;28;20366;-78
2022/06/12 00:47:56;;;;;;;;;;;;;;;18.93;nan;100091.63;4981635;28;19929;-78
2022/06/12 00:50:21;;;;;;;;;;;;;;;18.85;nan;100086.34;4983011;28;19917;-79
2022/06/12 00:52:49;;;;;;;;;;;;;;;18.76;nan;100090.13;4982310;28;19964;-78
2022/06/12 00:55:29;;;;;;;;;;;;;;;18.66;nan;100097.59;4982198;28;19972;-78
2022/06/12 00:58:01;;;;;;;;;;;;;;;18.57;nan;100095.97;4980062;28;19929;-79
2022/06/12 01:00:26;;;;;;;;;;;;;;;18.66;nan;100103.75;4981601;28;20059;-79
2022/06/12 01:02:52;;;;;;;;;;;;;;;18.77;nan;100107.84;4979379;28;19918;-77
2022/06/12 01:08:05;;;;;;;;;;;;;;;18.94;nan;100109.31;4988997;28;19917;-78
2022/06/12 01:10:32;;;;;;;;;;;;;;;19.05;nan;100111.53;4992356;28;20390;-79
2022/06/12 01:12:59;;;;;;;;;;;;;;;19.09;nan;100104.81;4987489;28;19961;-78
2022/06/12 01:15:44;;;;;;;;;;;;;;;19.10;nan;100109.16;4992146;28;19957;-76
2022/06/12 01:18:11;;;;;;;;;;;;;;;19.10;nan;100102.97;4991814;28;19925;-78
2022/06/12 01:20:41;;;;;;;;;;;;;;;19.14;nan;100102.41;4991728;28;19924;-77
2022/06/12 01:23:25;;;;;;;;;;;;;;;19.20;nan;100095.50;4991982;28;19917;-76
2022/06/12 01:26:00;;;;;;;;;;;;;;;19.19;nan;100096.53;4992127;28;20286;-78
2022/06/12 01:28:33;;;;;;;;;;;;;;;19.23;nan;100103.97;4991843;28;20017;-78
2022/06/12 01:31:01;;;;;;;;;;;;;;;19.27;nan;100087.53;4992114;28;20008;-77
2022/06/12 01:33:30;;;;;;;;;;;;;;;19.27;nan;100095.56;4992382;28;20297;-78
2022/06/12 01:36:01;;;;;;;;;;;;;;;19.30;nan;100087.19;4991924;28;19917;-78
2022/06/12 01:38:26;;;;;;;;;;;;;;;19.29;nan;100086.34;4992926;28;19968;-76
2022/06/12 01:40:57;;;;;;;;;;;;;;;19.27;nan;100087.53;4992880;28;19922;-77
2022/06/12 01:43:25;;;;;;;;;;;;;;;19.16;nan;100089.69;4992416;28;19925;-76
2022/06/12 01:45:53;;;;;;;;;;;;;;;19.01;nan;100086.19;4992031;28;19961;-78
2022/06/12 01:48:28;;;;;;;;;;;;;;;18.95;nan;100084.25;4991351;28;20302;-78
2022/06/12 01:50:56;;;;;;;;;;;;;;;18.91;nan;100088.28;4990149;28;19932;-78
2022/06/12 01:53:38;;;;;;;;;;;;;;;18.85;nan;100094.38;4991391;28;19917;-78
2022/06/12 01:56:23;;;;;;;;;;;;;;;18.74;nan;100092.13;4991302;28;19917;-77
2022/06/12 01:58:48;;;;;;;;;;;;;;;18.71;nan;100089.84;4991371;28;20121;-78
2022/06/12 02:01:16;;;;;;;;;;;;;;;18.63;nan;100084.56;4991197;28;20022;-78
2022/06/12 02:03:47;;;;;;;;;;;;;;;18.57;nan;100087.97;4991431;28;19979;-78
2022/06/12 02:06:17;;;;;;;;;;;;;;;18.61;nan;100076.75;4990646;28;19918;-77
2022/06/12 02:08:47;;;;;;;;;;;;;;;18.60;nan;100071.56;4991450;28;20389;-77
2022/06/12 02:14:02;;;;;;;;;;;;;;;18.61;nan;100065.22;4987673;28;19918;-78
2022/06/12 02:16:33;;;;;;;;;;;;;;;18.62;nan;100066.88;4991192;28;19918;-78
2022/06/12 02:19:02;;;;;;;;;;;;;;;18.59;nan;100068.06;4991412;28;19925;-78
2022/06/12 02:21:30;;;;;;;;;;;;;;;18.57;nan;100063.91;4989800;28;20035;-79
2022/06/12 02:24:01;;;;;;;;;;;;;;;18.55;nan;100060.59;4991548;28;19918;-78
2022/06/12 02:26:31;;;;;;;;;;;;;;;18.51;nan;100054.75;4994982;28;19921;-78
2022/06/12 02:29:02;;;;;;;;;;;;;;;18.38;nan;100066.03;4993978;28;19924;-77
2022/06/12 02:31:34;;;;;;;;;;;;;;;18.16;nan;100064.25;4995011;28;19918;-78
2022/06/12 02:34:02;;;;;;;;;;;;;;;18.09;nan;100060.63;4994909;28;19918;-78
2022/06/12 02:36:30;;;;;;;;;;;;;;;18.02;nan;100069.53;4994411;28;19925;-77
2022/06/12 02:39:01;;;;;;;;;;;;;;;17.92;nan;100069.75;4994875;28;19972;-77
2022/06/12 02:41:29;;;;;;;;;;;;;;;17.99;nan;100076.06;4994947;28;20332;-78
2022/06/12 02:43:57;;;;;;;;;;;;;;;18.03;nan;100072.00;4994821;28;20227;-78
2022/06/12 02:46:26;;;;;;;;;;;;;;;18.06;nan;100071.66;4994441;28;20397;-78
2022/06/12 02:48:52;;;;;;;;;;;;;;;18.04;nan;100079.03;4994703;28;20388;-78
2022/06/12 02:51:20;;;;;;;;;;;;;;;18.01;nan;100079.38;4992746;28;19922;-78
2022/06/12 02:53:47;;;;;;;;;;;;;;;17.84;nan;100088.50;4994511;28;19971;-78
2022/06/12 02:56:15;;;;;;;;;;;;;;;17.64;nan;100082.78;4994223;28;19917;-77
2022/06/12 02:58:49;;;;;;;;;;;;;;;17.70;nan;100086.59;4994409;28;19918;-78
2022/06/12 03:01:17;;;;;;;;;;;;;;;17.83;nan;100087.69;4994148;28;20412;-77
2022/06/12 03:03:42;;;;;;;;;;;;;;;17.86;nan;100094.50;4994394;28;19914;-77
2022/06/12 03:06:08;;;;;;;;;;;;;;;17.85;nan;100095.50;4993442;28;19918;-78
2022/06/12 03:08:38;;;;;;;;;;;;;;;17.73;nan;100092.38;4994343;28;20326;-78
2022/06/12 03:11:06;;;;;;;;;;;;;;;17.27;nan;100101.25;4994061;28;19968;-78
2022/06/12 03:13:32;;;;;;;;;;;;;;;17.08;nan;100107.84;4994318;28;19924;-78
2022/06/12 03:15:59;;;;;;;;;;;;;;;17.14;nan;100107.97;4994165;28;19917;-78
2022/06/12 03:18:28;;;;;;;;;;;;;;;17.27;nan;100111.91;4993735;28;20009;-78
2022/06/12 03:21:13;;;;;;;;;;;;;;;17.30;nan;100109.75;4993769;28;19933;-78
2022/06/12 03:24:00;;;;;;;;;;;;;;;17.31;nan;100114.09;4991318;28;19918;-78
2022/06/12 03:26:31;;;;;;;;;;;;;;;17.42;nan;100124.38;4993833;28;19921;-78
2022/06/12 03:28:56;;;;;;;;;;;;;;;17.45;nan;100131.19;4994014;28;19925;-77
2022/06/12 03:31:45;;;;;;;;;;;;;;;17.41;nan;100130.72;4993482;28;19929;-78
2022/06/12 03:34:19;;;;;;;;;;;;;;;17.34;nan;100137.75;4982712;28;20397;-76
2022/06/12 03:36:51;;;;;;;;;;;;;;;17.29;nan;100142.78;4992346;28;19924;-78
2022/06/12 03:39:22;;;;;;;;;;;;;;;17.35;nan;100141.25;4992198;28;20013;-77
2022/06/12 03:41:50;;;;;;;;;;;;;;;17.35;nan;100147.41;4993747;28;19921;-78
2022/06/12 03:44:25;;;;;;;;;;;;;;;17.35;nan;100154.59;4993336;28;20298;-78
2022/06/12 03:46:54;;;;;;;;;;;;;;;17.39;nan;100159.41;4993524;28;19956;-78
2022/06/12 03:49:29;;;;;;;;;;;;;;;17.43;nan;100160.75;4993171;28;19918;-77
2022/06/12 03:51:59;;;;;;;;;;;;;;;17.46;nan;100165.72;4993183;28;19972;-78
2022/06/12 03:54:47;;;;;;;;;;;;;;;17.28;nan;100167.78;4993424;28;20313;-77
2022/06/12 04:00:29;;;;;;;;;;;;;;;17.31;nan;100167.44;4990587;28;19917;-77
2022/06/12 04:03:08;;;;;;;;;;;;;;;17.35;nan;100174.09;4993328;28;19925;-78
2022/06/12 04:05:36;;;;;;;;;;;;;;;16.99;nan;100180.84;4989710;28;19922;-76
2022/06/12 04:08:03;;;;;;;;;;;;;;;17.10;nan;100191.97;4992727;28;20406;-78
2022/06/12 04:10:31;;;;;;;;;;;;;;;17.27;nan;100186.59;4993045;28;19918;-76
2022/06/12 04:12:57;;;;;;;;;;;;;;;17.20;nan;100187.28;4993175;28;20369;-78
2022/06/12 04:15:26;;;;;;;;;;;;;;;17.26;nan;100190.31;4992638;28;19924;-78
2022/06/12 04:17:51;;;;;;;;;;;;;;;17.24;nan;100182.47;4992990;28;20020;-78
2022/06/12 04:20:21;;;;;;;;;;;;;;;17.35;nan;100189.28;4992690;28;20012;-77
2022/06/12 04:23:07;;;;;;;;;;;;;;;17.28;nan;100194.44;4992659;28;20012;-77
2022/06/12 04:25:32;;;;;;;;;;;;;;;17.32;nan;100190.44;4992677;28;20374;-77
2022/06/12 04:27:58;;;;;;;;;;;;;;;17.47;nan;100183.41;4991193;28;19918;-78
2022/06/12 04:30:25;;;;;;;;;;;;;;;17.55;nan;100191.34;4992711;28;19929;-77
2022/06/12 04:33:01;;;;;;;;;;;;;;;17.67;nan;100193.72;4992815;28;19918;-77
2022/06/12 04:35:26;;;;;;;;;;;;;;;17.62;nan;100209.38;4992600;28;19925;-76
2022/06/12 04:37:51;;;;;;;;;;;;;;;17.67;nan;100194.50;4991083;28;19918;-77
2022/06/12 04:40:22;;;;;;;;;;;;;;;17.75;nan;100185.66;4991391;28;20845;-77
2022/06/12 04:42:48;;;;;;;;;;;;;;;17.48;nan;100193.06;4992499;28;19918;-77
2022/06/12 04:45:13;;;;;;;;;;;;;;;17.65;nan;100185.03;4992208;28;20301;-78
2022/06/12 04:47:39;;;;;;;;;;;;;;;17.70;nan;100188.00;4992365;28;19913;-78
2022/06/12 04:50:04;;;;;;;;;;;;;;;17.42;nan;100196.44;4992083;28;19918;-77
2022/06/12 04:52:30;;;;;;;;;;;;;;;17.67;nan;100199.06;4992354;28;20366;-75
2022/06/12 04:54:55;;;;;;;;;;;;;;;17.67;nan;100197.19;4991047;28;19913;-76
2022/06/12 04:57:23;;;;;;;;;;;;;;;17.76;nan;100198.00;4991970;28;20277;-78
2022/06/12 04:59:48;;;;;;;;;;;;;;;17.87;nan;100200.28;4992225;28;19918;-77
2022/06/12 05:02:14;;;;;;;;;;;;;;;17.93;nan;100199.59;4991950;28;19918;-77
2022/06/12 05:04:39;;;;;;;;;;;;;;;17.85;nan;100202.28;4992206;28;19917;-78
2022/06/12 05:07:07;;;;;;;;;;;;;;;17.94;nan;100201.25;4991440;28;19928;-77
2022/06/12 05:09:34;;;;;;;;;;;;;;;18.06;nan;100213.22;4992263;28;19917;-77
2022/06/12 05:11:59;;;;;;;;;;;;;;;18.13;nan;100210.69;4991980;28;19918;-77
2022/06/12 05:14:25;;;;;;;;;;;;;;;18.17;nan;100218.16;4991852;28;19976;-77
2022/06/12 05:16:55;;;;;;;;;;;;;;;18.26;nan;100211.75;4991787;28;19987;-77
2022/06/12 05:19:23;;;;;;;;;;;;;;;18.32;nan;100210.19;4991736;28;19957;-77
2022/06/12 05:21:48;;;;;;;;;;;;;;;18.41;nan;100212.66;4991758;28;19972;-77
2022/06/12 05:24:15;;;;;;;;;;;;;;;18.48;nan;100217.31;4991609;28;19961;-78
2022/06/12 05:26:41;;;;;;;;;;;;;;;18.57;nan;100213.59;4990281;28;19967;-77
2022/06/12 05:29:08;;;;;;;;;;;;;;;18.68;nan;100210.50;4991419;28;19917;-78
2022/06/12 05:31:35;;;;;;;;;;;;;;;18.76;nan;100205.09;4991901;28;19930;-78
2022/06/12 05:34:01;;;;;;;;;;;;;;;18.70;nan;100206.63;4991443;28;20012;-78
2022/06/12 05:36:27;;;;;;;;;;;;;;;18.77;nan;100204.91;4991298;28;20013;-78
2022/06/12 05:38:52;;;;;;;;;;;;;;;18.92;nan;100196.91;4987970;28;19921;-77
2022/06/12 05:41:18;;;;;;;;;;;;;;;19.04;nan;100200.81;5001280;28;19921;-74
2022/06/12 05:43:44;;;;;;;;;;;;;;;19.17;nan;100200.19;4980509;28;20023;-74
2022/06/12 05:46:10;;;;;;;;;;;;;;;19.29;nan;100204.09;4979811;28;19922;-75
2022/06/12 05:48:36;;;;;;;;;;;;;;;19.39;nan;100198.47;4982654;28;19990;-75
2022/06/12 05:51:01;;;;;;;;;;;;;;;19.45;nan;100192.38;4978222;28;19984;-73
2022/06/12 05:53:28;;;;;;;;;;;;;;;19.55;nan;100195.66;4982597;28;19918;-75
2022/06/12 05:55:54;;;;;;;;;;;;;;;19.65;nan;100200.72;4980196;28;19926;-76
2022/06/12 05:58:20;;;;;;;;;;;;;;;19.73;nan;100209.50;4981002;28;20021;-76
2022/06/12 06:00:46;;;;;;;;;;;;;;;19.80;nan;100202.34;4982913;28;20000;-76
2022/06/12 06:03:12;;;;;;;;;;;;;;;19.85;nan;100205.31;4984377;28;20001;-77
2022/06/12 06:05:39;;;;;;;;;;;;;;;19.90;nan;100212.81;4987185;28;19925;-77
2022/06/12 06:08:05;;;;;;;;;;;;;;;19.94;nan;100212.22;4993167;28;19929;-76
2022/06/12 06:10:30;;;;;;;;;;;;;;;19.62;nan;100220.66;4995222;28;20254;-75
2022/06/12 06:12:56;;;;;;;;;;;;;;;19.84;nan;100218.91;4994754;28;19924;-76
2022/06/12 06:15:22;;;;;;;;;;;;;;;19.97;nan;100222.56;4994298;28;19956;-77
2022/06/12 06:17:47;;;;;;;;;;;;;;;20.11;nan;100228.09;4993735;28;19917;-78
2022/06/12 06:20:17;;;;;;;;;;;;;;;20.22;nan;100232.94;4994412;28;19987;-77
2022/06/12 06:22:42;;;;;;;;;;;;;;;20.28;nan;100227.66;4994558;28;19913;-77
2022/06/12 06:25:08;;;;;;;;;;;;;;;20.22;nan;100232.94;4994282;28;20013;-76
2022/06/12 06:27:34;;;;;;;;;;;;;;;20.35;nan;100227.78;4993359;28;19976;-76
2022/06/12 06:29:59;;;;;;;;;;;;;;;20.46;nan;100229.97;4992589;28;19913;-76
2022/06/12 06:32:25;;;;;;;;;;;;;;;20.54;nan;100237.06;4994228;28;20019;-76
2022/06/12 06:34:50;;;;;;;;;;;;;;;20.61;nan;100233.44;4994484;28;20362;-76
2022/06/12 06:37:16;;;;;;;;;;;;;;;20.57;nan;100232.13;4993875;28;20012;-78
2022/06/12 06:39:42;;;;;;;;;;;;;;;20.73;nan;100237.28;4994487;28;19973;-76
2022/06/12 06:42:08;;;;;;;;;;;;;;;20.77;nan;100241.22;4993927;28;20023;-76
2022/06/12 06:47:17;;;;;;;;;;;;;;;20.91;nan;100244.03;4993770;28;19913;-77
2022/06/12 06:49:43;;;;;;;;;;;;;;;20.97;nan;100251.31;4994276;28;19929;-77
2022/06/12 06:52:08;;;;;;;;;;;;;;;21.10;nan;100259.44;4993657;28;19914;-77
2022/06/12 06:54:35;;;;;;;;;;;;;;;21.24;nan;100250.53;4992776;28;20360;-76
2022/06/12 06:57:00;;;;;;;;;;;;;;;21.26;nan;100247.66;4994068;28;19969;-77
2022/06/12 06:59:25;;;;;;;;;;;;;;;21.36;nan;100254.34;4994397;28;19925;-77
2022/06/12 07:01:52;;;;;;;;;;;;;;;21.44;nan;100251.47;4993724;28;20286;-77
2022/06/12 07:04:17;;;;;;;;;;;;;;;21.45;nan;100246.94;4993723;28;19921;-77
2022/06/12 07:06:43;;;;;;;;;;;;;;;21.54;nan;100249.31;4994029;28;19929;-77
2022/06/12 07:09:08;;;;;;;;;;;;;;;21.68;nan;100257.44;4994271;28;19924;-77
2022/06/12 07:11:34;;;;;;;;;;;;;;;21.77;nan;100256.25;4992946;28;20443;-76
2022/06/12 07:14:00;;;;;;;;;;;;;;;21.89;nan;100249.28;4993785;28;19924;-77
2022/06/12 07:16:26;;;;;;;;;;;;;;;22.01;nan;100258.47;4993100;28;20396;-77
2022/06/12 07:18:52;;;;;;;;;;;;;;;21.92;nan;100259.63;4993456;28;20433;-76
2022/06/12 07:21:18;;;;;;;;;;;;;;;22.03;nan;100259.91;4993210;28;19961;-76
2022/06/12 07:23:44;;;;;;;;;;;;;;;22.17;nan;100252.75;4993483;28;20371;-77
2022/06/12 07:26:15;;;;;;;;;;;;;;;22.32;nan;100263.38;4993320;28;19917;-75
2022/06/12 07:28:41;;;;;;;;;;;;;;;22.21;nan;100259.38;4992524;28;19918;-76
2022/06/12 07:31:07;;;;;;;;;;;;;;;22.36;nan;100257.38;4993016;28;19917;-77
2022/06/12 07:33:32;;;;;;;;;;;;;;;22.47;nan;100253.25;4993038;28;20271;-76
2022/06/12 07:35:58;;;;;;;;;;;;;;;22.59;nan;100262.41;4993065;28;20056;-76
2022/06/12 07:38:24;;;;;;;;;;;;;;;22.70;nan;100255.59;4992725;28;20310;-77
2022/06/12 07:40:52;;;;;;;;;;;;;;;22.79;nan;100257.09;4993269;28;20004;-77
2022/06/12 07:43:17;;;;;;;;;;;;;;;22.92;nan;100246.31;4992650;28;19914;-77
2022/06/12 07:45:43;;;;;;;;;;;;;;;23.05;nan;100251.72;4993377;28;19928;-77
2022/06/12 07:48:09;;;;;;;;;;;;;;;23.10;nan;100249.25;4992399;28;20004;-77
2022/06/12 07:50:37;;;;;;;;;;;;;;;23.19;nan;100256.09;4992926;28;19996;-77
2022/06/12 07:53:03;;;;;;;;;;;;;;;23.24;nan;100256.28;4992565;28;20064;-76
2022/06/12 07:55:28;;;;;;;;;;;;;;;23.28;nan;100257.53;4993145;28;20005;-76
2022/06/12 07:57:53;;;;;;;;;;;;;;;23.30;nan;100253.78;4992770;28;19925;-77
2022/06/12 08:00:19;;;;;;;;;;;;;;;23.27;nan;100255.84;4992581;28;19917;-77
2022/06/12 08:02:45;;;;;;;;;;;;;;;23.33;nan;100256.09;4992625;28;19921;-78
2022/06/12 08:05:11;;;;;;;;;;;;;;;23.40;nan;100243.41;4992007;28;19918;-77
2022/06/12 08:07:37;;;;;;;;;;;;;;;23.50;nan;100251.94;4992650;28;19918;-77
2022/06/12 08:10:03;;;;;;;;;;;;;;;23.58;nan;100247.16;4992796;28;19917;-77
2022/06/12 08:12:30;;;;;;;;;;;;;;;23.62;nan;100244.88;4988881;28;20377;-77
2022/06/12 08:14:56;;;;;;;;;;;;;;;23.76;nan;100243.78;4991350;28;19917;-77
2022/06/12 08:17:21;;;;;;;;;;;;;;;23.87;nan;100235.06;4992460;28;19925;-78
2022/06/12 08:22:31;;;;;;;;;;;;;;;24.00;nan;100232.31;4988083;28;19983;-77
2022/06/12 08:24:56;;;;;;;;;;;;;;;24.05;nan;100231.66;4992287;28;20309;-77
2022/06/12 08:27:22;;;;;;;;;;;;;;;24.13;nan;100227.91;4991962;28;19920;-77
2022/06/12 08:29:48;;;;;;;;;;;;;;;24.25;nan;100231.63;4992724;28;19917;-77
2022/06/12 08:32:16;;;;;;;;;;;;;;;24.32;nan;100227.03;4992000;28;19918;-76
2022/06/12 08:34:44;;;;;;;;;;;;;;;24.39;nan;100222.41;4991845;28;19918;-77
2022/06/12 08:37:17;;;;;;;;;;;;;;;24.47;nan;100211.38;4991179;28;19917;-76
2022/06/12 08:39:42;;;;;;;;;;;;;;;24.55;nan;100211.13;4992173;28;20024;-77
2022/06/12 08:42:14;;;;;;;;;;;;;;;24.59;nan;100201.53;4991770;28;20084;-77
2022/06/12 08:44:39;;;;;;;;;;;;;;;24.64;nan;100198.16;4992175;28;19917;-77
2022/06/12 08:47:11;;;;;;;;;;;;;;;24.68;nan;100194.81;4991814;28;20373;-78
2022/06/12 08:49:43;;;;;;;;;;;;;;;24.75;nan;100201.00;4991983;28;19925;-78
2022/06/12 08:52:16;;;;;;;;;;;;;;;24.85;nan;100201.34;4991297;28;19961;-77
2022/06/12 08:55:03;;;;;;;;;;;;;;;24.92;nan;100201.28;4991789;28;19917;-77
2022/06/12 08:57:33;;;;;;;;;;;;;;;24.99;nan;100201.25;4991801;28;19917;-78
2022/06/12 09:00:05;;;;;;;;;;;;;;;25.05;nan;100201.19;4991769;28;19960;-77
2022/06/12 09:02:32;;;;;;;;;;;;;;;25.10;nan;100198.66;4992054;28;20718;-75
2022/06/12 09:05:00;;;;;;;;;;;;;;;25.12;nan;100207.38;4990006;28;20357;-77
2022/06/12 09:07:25;;;;;;;;;;;;;;;25.10;nan;100203.22;4990362;28;19921;-77
2022/06/12 09:09:54;;;;;;;;;;;;;;;25.13;nan;100202.78;4991186;28;20012;-77
2022/06/12 09:12:23;;;;;;;;;;;;;;;25.20;nan;100208.97;4991170;28;19922;-77
2022/06/12 09:15:02;;;;;;;;;;;;;;;25.26;nan;100202.69;4991451;28;20405;-77
2022/06/12 09:17:48;;;;;;;;;;;;;;;25.31;nan;100197.44;4991280;28;19925;-77
2022/06/12 09:20:27;;;;;;;;;;;;;;;25.38;nan;100200.06;4989211;28;19921;-76
2022/06/12 09:23:13;;;;;;;;;;;;;;;25.43;nan;100192.94;4990633;28;19976;-77
2022/06/12 09:25:45;;;;;;;;;;;;;;;25.56;nan;100198.25;4987197;28;19987;-75
2022/06/12 09:28:10;;;;;;;;;;;;;;;25.61;nan;100190.28;4990910;28;19964;-77
2022/06/12 09:30:41;;;;;;;;;;;;;;;25.68;nan;100196.41;4991272;28;19960;-76
2022/06/12 09:33:10;;;;;;;;;;;;;;;25.69;nan;100192.66;4991011;28;20281;-77
2022/06/12 09:35:36;;;;;;;;;;;;;;;25.77;nan;100183.44;4990388;28;19914;-76
2022/06/12 09:38:19;;;;;;;;;;;;;;;25.84;nan;100188.78;4989812;28;19925;-78
2022/06/12 09:40:50;;;;;;;;;;;;;;;25.88;nan;100187.25;4988871;28;20009;-77
2022/06/12 09:43:34;;;;;;;;;;;;;;;25.95;nan;100179.88;4989143;28;19957;-77
2022/06/12 09:46:02;;;;;;;;;;;;;;;26.07;nan;100172.66;4986876;28;19917;-77
2022/06/12 09:48:45;;;;;;;;;;;;;;;26.08;nan;100179.72;4990890;28;19933;-78
2022/06/12 09:51:29;;;;;;;;;;;;;;;26.14;nan;100172.56;4988110;28;19921;-76
2022/06/12 09:54:05;;;;;;;;;;;;;;;26.21;nan;100171.44;4990080;28;20389;-77
2022/06/12 09:56:36;;;;;;;;;;;;;;;26.34;nan;100162.31;4990685;28;19951;-77
2022/06/12 09:59:07;;;;;;;;;;;;;;;26.41;nan;100153.03;4990555;28;19917;-78
2022/06/12 10:01:36;;;;;;;;;;;;;;;26.51;nan;100148.97;4990929;28;20001;-78
2022/06/12 10:04:21;;;;;;;;;;;;;;;26.53;nan;100149.53;4990655;28;19918;-78
2022/06/12 10:06:49;;;;;;;;;;;;;;;26.52;nan;100147.88;4987834;28;19917;-77
2022/06/12 10:09:21;;;;;;;;;;;;;;;26.57;nan;100150.75;4989417;28;19995;-75
2022/06/12 10:11:46;;;;;;;;;;;;;;;26.67;nan;100145.56;4990392;28;20036;-76
2022/06/12 10:14:11;;;;;;;;;;;;;;;26.66;nan;100136.63;4990117;28;20015;-77
2022/06/12 10:16:46;;;;;;;;;;;;;;;26.73;nan;100140.06;4990660;28;19940;-77
2022/06/12 10:19:35;;;;;;;;;;;;;;;26.70;nan;100135.09;4990385;28;20050;-77
2022/06/12 10:22:04;;;;;;;;;;;;;;;26.87;nan;100135.22;4987360;28;19942;-77
2022/06/12 10:24:29;;;;;;;;;;;;;;;26.84;nan;100127.59;4990290;28;19964;-77
2022/06/12 10:27:00;;;;;;;;;;;;;;;26.97;nan;100124.69;4990401;28;19917;-77
2022/06/12 10:29:27;;;;;;;;;;;;;;;26.90;nan;100118.56;4990275;28;19922;-77
2022/06/12 10:32:01;;;;;;;;;;;;;;;26.95;nan;100118.66;4990180;28;19917;-77
2022/06/12 10:34:31;;;;;;;;;;;;;;;27.02;nan;100115.84;4988945;28;20401;-77
2022/06/12 10:37:08;;;;;;;;;;;;;;;27.07;nan;100119.47;4990124;28;19917;-78
2022/06/12 10:39:35;;;;;;;;;;;;;;;27.12;nan;100111.47;4988954;28;19975;-78
2022/06/12 10:42:07;;;;;;;;;;;;;;;27.18;nan;100110.53;4989867;28;19940;-78
2022/06/12 10:44:32;;;;;;;;;;;;;;;27.25;nan;100108.50;4989927;28;19917;-77
2022/06/12 10:47:16;;;;;;;;;;;;;;;27.32;nan;100104.84;4992976;28;19964;-78
2022/06/12 10:49:42;;;;;;;;;;;;;;;27.35;nan;100107.91;4991480;28;19918;-78
2022/06/12 10:52:21;;;;;;;;;;;;;;;27.38;nan;100109.31;4993086;28;19917;-77
2022/06/12 10:54:50;;;;;;;;;;;;;;;27.40;nan;100102.56;4993790;28;19918;-78
2022/06/12 10:57:34;;;;;;;;;;;;;;;27.53;nan;100101.53;4992429;28;19964;-78
2022/06/12 11:00:04;;;;;;;;;;;;;;;27.65;nan;100096.88;4992042;28;20000;-78
2022/06/12 11:02:47;;;;;;;;;;;;;;;27.68;nan;100093.72;4993529;28;19924;-75
2022/06/12 11:05:19;;;;;;;;;;;;;;;27.80;nan;100086.34;4990986;28;19944;-77
2022/06/12 11:07:56;;;;;;;;;;;;;;;27.83;nan;100088.56;5004546;23;19925;-72
2022/06/12 11:10:40;;;;;;;;;;;;;;;27.83;nan;100075.00;4638820;28;10000330;-72
2022/06/12 11:13:23;;;;;;;;;;;;;;;27.85;nan;100072.88;4987631;28;19921;-73
2022/06/12 11:16:07;;;;;;;;;;;;;;;27.84;nan;100071.25;4992473;28;19918;-74
2022/06/12 11:18:35;;;;;;;;;;;;;;;27.85;nan;100072.88;4988049;28;20360;-74
2022/06/12 11:21:07;;;;;;;;;;;;;;;27.87;nan;100076.16;4988981;28;19922;-73
2022/06/12 11:23:48;;;;;;;;;;;;;;;27.90;nan;100070.25;4992625;28;20012;-73
2022/06/12 11:26:23;;;;;;;;;;;;;;;28.02;nan;100062.88;4990295;28;19924;-73
2022/06/12 11:29:00;;;;;;;;;;;;;;;28.18;nan;100055.03;4992478;28;20374;-73
2022/06/12 11:31:33;;;;;;;;;;;;;;;28.27;nan;100059.84;4991080;28;19926;-74
2022/06/12 11:34:11;;;;;;;;;;;;;;;28.32;nan;100051.78;4992487;28;20008;-74
2022/06/12 11:36:38;;;;;;;;;;;;;;;28.46;nan;100047.63;4992556;28;19918;-74
2022/06/12 11:39:30;;;;;;;;;;;;;;;28.50;nan;100053.41;4991912;28;19957;-74
2022/06/12 11:42:03;;;;;;;;;;;;;;;28.45;nan;100046.00;4983903;28;19932;-73
2022/06/12 11:44:37;;;;;;;;;;;;;;;28.47;nan;100043.03;4980762;28;19969;-74
2022/06/12 11:47:21;;;;;;;;;;;;;;;28.59;nan;100041.03;4988054;28;19972;-73
2022/06/12 11:50:05;;;;;;;;;;;;;;;28.56;nan;100019.84;4990314;28;19917;-75
2022/06/12 11:53:10;;;;;;;;;;;;;;;28.60;nan;100015.56;4991819;28;20012;-74
2022/06/12 11:55:38;;;;;;;;;;;;;;;28.78;nan;100018.00;4982525;28;20057;-74
2022/06/12 11:58:15;;;;;;;;;;;;;;;28.93;nan;100003.81;4977339;28;20378;-74
2022/06/12 12:00:59;;;;;;;;;;;;;;;29.09;nan;100004.84;4964347;28;20278;-74
2022/06/12 12:03:39;;;;;;;;;;;;;;;29.25;nan;100001.22;4981062;28;19945;-74
2022/06/12 12:06:29;;;;;;;;;;;;;;;29.40;nan;99993.25;4982402;28;19918;-75
2022/06/12 12:08:54;;;;;;;;;;;;;;;29.48;nan;99987.38;4982028;28;19930;-75
2022/06/12 12:11:25;;;;;;;;;;;;;;;29.59;nan;99974.69;4980130;28;20010;-75
2022/06/12 12:13:53;;;;;;;;;;;;;;;29.60;nan;99971.72;4979121;28;19917;-75
2022/06/12 12:16:28;;;;;;;;;;;;;;;29.74;nan;99965.88;4979591;28;19918;-75
2022/06/12 12:18:57;;;;;;;;;;;;;;;29.90;nan;99970.38;4978632;28;20019;-74
2022/06/12 12:21:35;;;;;;;;;;;;;;;30.07;nan;99955.59;4980229;28;19941;-75
2022/06/12 12:24:01;;;;;;;;;;;;;;;30.26;nan;99964.16;4981515;28;19917;-73
2022/06/12 12:26:33;;;;;;;;;;;;;;;30.50;nan;99960.00;4982123;28;20008;-74
2022/06/12 12:29:02;;;;;;;;;;;;;;;30.76;nan;99958.22;4980061;28;19917;-74
2022/06/12 12:31:29;;;;;;;;;;;;;;;31.01;nan;99954.78;4982955;28;20001;-75
2022/06/12 12:33:55;;;;;;;;;;;;;;;31.26;nan;99951.34;4980527;28;20021;-75
2022/06/12 12:42:04;;;;;;;;;;;;;;;32.17;nan;99948.75;4987688;28;19964;-76
2022/06/12 12:44:35;;;;;;;;;;;;;;;32.45;nan;99941.88;4991182;28;19922;-75
2022/06/12 12:47:02;;;;;;;;;;;;;;;32.59;nan;99926.53;4990679;28;20326;-73
2022/06/12 12:49:32;;;;;;;;;;;;;;;32.99;nan;99919.31;4990870;28;19917;-73
2022/06/12 12:52:16;;;;;;;;;;;;;;;33.07;nan;99919.53;4991064;28;19920;-76
2022/06/12 12:54:52;;;;;;;;;;;;;;;33.41;nan;99910.56;4988623;28;19925;-73
2022/06/12 12:57:39;;;;;;;;;;;;;;;33.85;nan;99913.28;4990591;28;19918;-72
2022/06/12 13:00:06;;;;;;;;;;;;;;;34.10;nan;99907.59;4990684;28;19933;-73
2022/06/12 13:02:35;;;;;;;;;;;;;;;34.49;nan;99904.72;4990611;28;19913;-73
2022/06/12 13:05:13;;;;;;;;;;;;;;;34.76;nan;99899.47;4986689;28;19964;-72
2022/06/12 13:07:38;;;;;;;;;;;;;;;35.09;nan;99902.34;4990305;28;20001;-72
2022/06/12 13:10:22;;;;;;;;;;;;;;;35.39;nan;99895.63;4990572;28;20351;-72
2022/06/12 13:13:07;;;;;;;;;;;;;;;35.72;nan;99886.31;4989246;28;19913;-73
2022/06/12 13:15:32;;;;;;;;;;;;;;;36.16;nan;99882.28;4990891;28;19926;-73
2022/06/12 13:18:07;;;;;;;;;;;;;;;36.47;nan;99883.28;4990174;28;19918;-73
2022/06/12 13:20:42;;;;;;;;;;;;;;;36.67;nan;99877.41;4990516;28;19953;-73
2022/06/12 13:23:26;;;;;;;;;;;;;;;36.42;nan;99875.16;4987013;28;19918;-73
2022/06/12 13:25:53;;;;;;;;;;;;;;;36.60;nan;99876.97;4990604;28;19921;-74
2022/06/12 13:28:27;;;;;;;;;;;;;;;36.92;nan;99870.53;4990259;28;19924;-73
2022/06/12 13:30:54;;;;;;;;;;;;;;;37.11;nan;99859.44;4990582;28;20015;-73
2022/06/12 13:33:20;;;;;;;;;;;;;;;37.52;nan;99860.06;4988253;28;19922;-73